Time;durP1;ratioP1;P1;durP2;ratioP2;P2;SDS_P1;SDS_P2;PMS_P1;PMS_P2;Temp;Humidity;BMP_temperature;BMP_pressure;BME280_temperature;BME280_humidity;BME280_pressure;Samples;Min_cycle;Max_cycle;Signal;HPM_P1;HPM_P2
2021/10/25 00:00:52;;;;;;;8.38;4.55;;;7.70;99.90;;;8.60;89.51;100915.03;6070084;23;20010;-81
2021/10/25 00:03:18;;;;;;;6.28;3.72;;;7.80;99.90;;;8.61;88.90;100916.63;6045089;23;20021;-84
2021/10/25 00:05:44;;;;;;;5.55;3.78;;;7.80;99.90;;;8.61;88.83;100917.47;6069807;23;20007;-82
2021/10/25 00:08:13;;;;;;;8.00;3.72;;;7.70;99.90;;;8.59;88.81;100919.78;6070908;23;20017;-84
2021/10/25 00:10:42;;;;;;;8.00;3.75;;;7.70;99.90;;;8.53;89.06;100921.13;6069719;23;20007;-81
2021/10/25 00:13:09;;;;;;;6.40;4.28;;;7.70;99.90;;;8.50;89.36;100916.25;6045303;23;20007;-83
2021/10/25 00:15:36;;;;;;;9.57;3.75;;;7.60;99.90;;;8.48;89.51;100919.34;6071142;23;20018;-82
2021/10/25 00:18:02;;;;;;;6.70;3.40;;;7.60;99.90;;;8.45;89.39;100920.03;6070289;23;20011;-83
2021/10/25 00:20:28;;;;;;;6.75;3.28;;;7.60;99.90;;;8.40;90.00;100911.88;6045963;23;20062;-82
2021/10/25 00:22:55;;;;;;;5.63;3.30;;;7.50;99.90;;;8.45;89.76;100910.84;6070039;23;20039;-81
2021/10/25 00:25:21;;;;;;;6.80;4.22;;;7.60;99.90;;;8.48;89.75;100911.00;6071155;23;20014;-80
2021/10/25 00:27:46;;;;;;;8.80;4.32;;;7.50;99.90;;;8.43;89.48;100911.22;6072028;23;20014;-82
2021/10/25 00:30:12;;;;;;;6.65;3.75;;;7.60;99.90;;;8.42;90.20;100909.56;6046091;23;20422;-82
2021/10/25 00:32:39;;;;;;;7.38;3.83;;;7.50;99.90;;;8.44;89.63;100906.47;6071998;23;20002;-82
2021/10/25 00:35:07;;;;;;;5.93;3.70;;;7.60;99.90;;;8.38;90.31;100908.59;6072271;23;20014;-82
2021/10/25 00:37:33;;;;;;;6.88;3.67;;;7.60;99.90;;;8.38;90.31;100902.25;6046135;23;20082;-80
2021/10/25 00:39:59;;;;;;;8.05;4.15;;;7.60;99.90;;;8.36;90.03;100901.75;6046461;23;20042;-81
2021/10/25 00:42:25;;;;;;;7.43;3.72;;;7.50;99.90;;;8.35;90.01;100909.28;6052926;23;20018;-82
2021/10/25 00:44:51;;;;;;;7.35;4.00;;;7.40;99.90;;;8.31;91.04;100911.13;6091252;23;20360;-80
2021/10/25 00:47:17;;;;;;;9.52;3.50;;;7.50;99.90;;;8.32;91.08;100900.78;6091756;23;19995;-81
2021/10/25 00:49:44;;;;;;;7.20;3.85;;;7.50;99.90;;;8.36;90.56;100901.75;6090698;23;20054;-81
2021/10/25 00:52:10;;;;;;;6.40;3.72;;;7.50;99.90;;;8.37;90.23;100909.78;6046645;23;20034;-81
2021/10/25 00:54:37;;;;;;;7.82;3.72;;;7.50;99.90;;;8.37;90.16;100895.03;6045692;23;20010;-80
2021/10/25 00:57:04;;;;;;;7.20;3.85;;;7.50;99.90;;;8.32;90.35;100898.00;6069414;23;20445;-81
2021/10/25 00:59:32;;;;;;;6.85;3.60;;;7.40;99.90;;;8.25;90.30;100894.94;6044825;23;20090;-81
2021/10/25 01:02:01;;;;;;;4.63;3.65;;;7.40;99.90;;;8.21;91.06;100902.31;6044892;23;20388;-81
2021/10/25 01:04:27;;;;;;;6.60;3.80;;;7.30;99.90;;;8.16;91.07;100906.09;6069122;23;20057;-81
2021/10/25 01:06:55;;;;;;;6.10;3.50;;;7.30;99.90;;;8.11;91.30;100902.69;6044640;23;20330;-81
2021/10/25 01:09:22;;;;;;;7.28;3.95;;;7.20;99.90;;;8.05;91.64;100901.25;6068972;23;20011;-81
2021/10/25 01:11:49;;;;;;;7.60;3.42;;;7.10;99.90;;;8.01;92.32;100905.84;6068297;23;20006;-81
2021/10/25 01:14:19;;;;;;;6.35;3.30;;;7.10;99.90;;;7.88;93.14;100911.31;6069947;23;20007;-81
2021/10/25 01:16:45;;;;;;;5.35;3.88;;;7.00;99.90;;;7.86;93.45;100910.84;6069738;23;20456;-78
2021/10/25 01:19:11;;;;;;;8.52;3.70;;;7.00;99.90;;;7.87;93.69;100904.09;6043801;23;20021;-83
2021/10/25 01:21:37;;;;;;;7.22;4.25;;;7.00;99.90;;;7.88;93.55;100899.38;6043566;23;20360;-80
2021/10/25 01:24:04;;;;;;;8.57;4.32;;;7.00;99.90;;;7.92;93.35;100903.13;6067429;23;20015;-81
2021/10/25 01:26:30;;;;;;;7.97;4.15;;;7.00;99.90;;;7.83;93.70;100902.34;6069572;23;20026;-81
2021/10/25 01:28:56;;;;;;;5.68;4.00;;;7.00;99.90;;;7.75;94.39;100887.31;6084941;23;20025;-83
2021/10/25 01:31:23;;;;;;;7.43;4.10;;;6.90;99.90;;;7.76;94.53;100890.91;6098701;23;20425;-80
2021/10/25 01:33:52;;;;;;;7.10;3.60;;;6.90;99.90;;;7.82;94.14;100901.53;6044253;23;20452;-84
2021/10/25 01:36:21;;;;;;;6.10;3.65;;;7.00;99.90;;;7.82;94.00;100897.91;6070289;23;20054;-84
2021/10/25 01:38:48;;;;;;;5.72;3.80;;;7.00;99.90;;;7.77;94.00;100890.56;6070551;23;20026;-84
2021/10/25 01:41:14;;;;;;;8.82;4.07;;;6.90;99.90;;;7.72;94.38;100901.88;6044824;23;20011;-84
2021/10/25 01:43:40;;;;;;;8.20;3.88;;;6.90;99.90;;;7.71;94.10;100893.88;6070171;23;20010;-83
2021/10/25 01:46:06;;;;;;;7.70;3.75;;;6.80;99.90;;;7.71;94.36;100893.88;6072724;23;20046;-85
2021/10/25 01:48:33;;;;;;;5.78;3.85;;;6.80;99.90;;;7.72;94.54;100896.31;6072367;23;20010;-84
2021/10/25 01:50:59;;;;;;;6.30;3.80;;;6.80;99.90;;;7.77;94.16;100898.13;6044086;23;20007;-84
2021/10/25 01:53:28;;;;;;;8.18;4.05;;;6.90;99.90;;;7.80;93.81;100892.69;6044044;23;20034;-83
2021/10/25 01:56:00;;;;;;;9.40;4.18;;;6.80;99.90;;;7.72;94.32;100890.75;6069700;23;20074;-82
2021/10/25 01:58:29;;;;;;;9.32;4.53;;;6.80;99.90;;;7.73;94.49;100886.84;6068007;23;20018;-82
2021/10/25 02:00:55;;;;;;;9.45;4.78;;;6.90;99.90;;;7.75;93.97;100889.28;6044074;23;20011;-84
2021/10/25 02:03:22;;;;;;;7.35;4.45;;;6.90;99.90;;;7.70;94.38;100881.94;6044153;23;20189;-85
2021/10/25 02:05:48;;;;;;;7.00;4.10;;;6.80;99.90;;;7.70;94.53;100881.13;6044173;23;20011;-84
2021/10/25 02:08:13;;;;;;;7.18;4.60;;;6.80;99.90;;;7.69;94.85;100883.09;6044635;23;20065;-84
2021/10/25 02:10:40;;;;;;;7.47;3.85;;;6.80;99.90;;;7.62;95.07;100887.53;6044324;23;20333;-85
2021/10/25 02:13:10;;;;;;;8.98;4.28;;;6.70;99.90;;;7.54;95.53;100888.38;6069709;23;20011;-84
2021/10/25 02:15:37;;;;;;;8.55;4.55;;;6.70;99.90;;;7.51;96.07;100873.19;6044203;23;20048;-82
2021/10/25 02:18:04;;;;;;;8.95;4.00;;;6.70;99.90;;;7.58;95.47;100878.25;6044026;23;20102;-82
2021/10/25 02:20:30;;;;;;;7.15;4.30;;;6.70;99.90;;;7.61;95.25;100874.78;6070707;23;20018;-85
2021/10/25 02:22:55;;;;;;;5.20;3.72;;;6.70;99.90;;;7.61;95.28;100870.03;6043348;23;20010;-82
2021/10/25 02:25:21;;;;;;;6.20;4.00;;;6.70;99.90;;;7.63;95.36;100859.41;6043651;23;20018;-82
2021/10/25 02:27:47;;;;;;;6.68;3.97;;;6.80;99.90;;;7.68;95.29;100859.22;6069298;23;20006;-79
2021/10/25 02:30:13;;;;;;;6.95;4.47;;;6.70;99.90;;;7.65;95.10;100865.44;6044135;23;20110;-84
2021/10/25 02:32:39;;;;;;;7.30;4.00;;;6.80;99.90;;;7.67;94.78;100854.81;6043960;23;20018;-83
2021/10/25 02:35:05;;;;;;;8.23;4.25;;;6.70;99.90;;;7.57;95.79;100860.75;6069018;23;20018;-83
2021/10/25 02:37:31;;;;;;;8.90;4.30;;;6.70;99.90;;;7.60;95.63;100851.75;6069603;23;20018;-84
2021/10/25 02:39:57;;;;;;;7.28;4.22;;;6.80;99.90;;;7.60;95.19;100851.75;6068853;23;20043;-81
2021/10/25 02:42:23;;;;;;;12.18;4.88;;;6.70;99.90;;;7.58;95.74;100840.13;6044287;23;20022;-84
2021/10/25 02:44:49;;;;;;;10.23;4.60;;;6.70;99.90;;;7.62;95.79;100841.09;6069437;23;20011;-83
2021/10/25 02:47:15;;;;;;;7.57;3.78;;;6.70;99.90;;;7.56;95.62;100836.88;6069887;23;20007;-84
2021/10/25 02:49:41;;;;;;;6.40;3.85;;;6.70;99.90;;;7.50;95.45;100837.38;6043898;23;20007;-83
2021/10/25 02:52:07;;;;;;;7.78;4.22;;;6.60;99.90;;;7.49;96.16;100831.00;6044011;23;20014;-84
2021/10/25 02:54:33;;;;;;;8.35;4.75;;;6.60;99.90;;;7.55;96.00;100835.22;6044120;23;20011;-82
2021/10/25 02:56:58;;;;;;;8.20;4.63;;;6.60;99.90;;;7.49;95.92;100841.31;6069662;23;20086;-81
2021/10/25 02:59:24;;;;;;;9.00;3.92;;;6.60;99.90;;;7.43;95.92;100832.34;6069518;23;20006;-81
2021/10/25 03:01:50;;;;;;;7.25;4.50;;;6.50;99.90;;;7.47;95.94;100836.09;6069472;23;20007;-81
2021/10/25 03:04:17;;;;;;;10.38;4.60;;;6.50;99.90;;;7.44;96.50;100836.75;6044391;23;20019;-84
2021/10/25 03:06:43;;;;;;;7.15;4.10;;;6.40;99.90;;;7.38;96.29;100824.19;6044481;23;20006;-80
2021/10/25 03:09:09;;;;;;;8.38;4.50;;;6.50;99.90;;;7.38;96.93;100821.41;6068037;23;20011;-83
2021/10/25 03:11:35;;;;;;;8.57;4.50;;;6.50;99.90;;;7.38;96.68;100824.19;6069916;23;20014;-82
2021/10/25 03:14:02;;;;;;;6.05;4.10;;;6.50;99.90;;;7.37;97.34;100820.59;6044677;23;20031;-83
2021/10/25 03:16:28;;;;;;;7.22;4.68;;;6.50;99.90;;;7.34;97.33;100823.22;6045545;23;20433;-85
2021/10/25 03:18:54;;;;;;;8.00;4.38;;;6.50;99.90;;;7.36;97.64;100826.47;6045495;23;20034;-82
2021/10/25 03:21:22;;;;;;;8.00;3.92;;;6.50;99.90;;;7.37;97.46;100825.34;6082891;23;20093;-82
2021/10/25 03:23:51;;;;;;;6.07;4.15;;;6.40;99.90;;;7.31;97.36;100823.88;6069033;23;20023;-83
2021/10/25 03:26:18;;;;;;;8.90;4.50;;;6.40;99.90;;;7.35;97.84;100819.31;6072558;23;20379;-83
2021/10/25 03:28:45;;;;;;;8.25;4.13;;;6.50;99.90;;;7.39;97.70;100809.94;6046377;23;20011;-84
2021/10/25 03:31:11;;;;;;;10.40;4.85;;;6.50;99.90;;;7.40;97.27;100819.94;6045672;23;20362;-82
2021/10/25 03:33:39;;;;;;;7.18;4.22;;;6.40;99.90;;;7.32;98.18;100825.53;6070102;23;20034;-82
2021/10/25 03:36:07;;;;;;;5.97;4.15;;;6.40;99.90;;;7.32;98.25;100819.97;6070132;23;20066;-83
2021/10/25 03:38:36;;;;;;;9.88;4.13;;;6.40;99.90;;;7.30;98.11;100814.72;6070277;23;20071;-83
2021/10/25 03:41:05;;;;;;;8.35;4.18;;;6.40;99.90;;;7.33;97.89;100818.81;6069787;23;20422;-83
2021/10/25 03:43:35;;;;;;;7.72;3.95;;;6.40;99.90;;;7.28;97.67;100808.72;6071660;23;20478;-82
2021/10/25 03:46:16;;;;;;;7.43;4.75;;;6.30;99.90;;;7.29;98.28;100810.31;6072740;23;20003;-84
2021/10/25 03:48:48;;;;;;;13.63;4.57;;;6.40;99.90;;;7.32;98.42;100817.97;6074828;23;20014;-80
2021/10/25 03:51:16;;;;;;;10.48;5.15;;;6.40;99.90;;;7.35;98.17;100814.53;6073700;23;20007;-82
2021/10/25 04:13:23;;;;;;;7.93;4.18;;;6.40;99.90;;;7.39;98.25;100804.41;6069804;23;20057;-81
2021/10/25 04:29:36;;;;;;;7.82;4.30;;;6.40;99.90;;;7.35;98.54;100797.88;6069716;23;20086;-87
2021/10/25 04:32:06;;;;;;;9.05;4.72;;;6.50;99.90;;;7.37;98.88;100790.03;6070158;23;20002;-83
2021/10/25 04:34:34;;;;;;;7.97;4.95;;;6.50;99.90;;;7.39;98.56;100790.50;6044146;23;20501;-85
2021/10/25 04:37:00;;;;;;;7.30;4.60;;;6.50;99.90;;;7.45;98.79;100793.13;6070209;23;20082;-83
2021/10/25 04:39:26;;;;;;;7.13;4.63;;;6.50;99.90;;;7.48;98.40;100790.44;6070535;23;20015;-84
2021/10/25 04:41:52;;;;;;;9.48;4.50;;;6.50;99.90;;;7.50;98.03;100790.97;6044284;23;20472;-82
2021/10/25 04:44:18;;;;;;;7.10;4.45;;;6.60;99.90;;;7.48;98.57;100787.69;6044649;23;20314;-83
2021/10/25 04:46:44;;;;;;;8.63;4.70;;;6.50;99.90;;;7.45;98.42;100793.13;6070043;23;20014;-83
2021/10/25 04:49:09;;;;;;;6.75;4.18;;;6.60;99.90;;;7.48;98.26;100784.91;6069636;23;20010;-81
2021/10/25 04:51:35;;;;;;;7.65;4.10;;;6.60;99.90;;;7.47;98.52;100788.84;6070380;23;20014;-84
2021/10/25 04:54:03;;;;;;;9.45;4.65;;;6.60;99.90;;;7.52;98.25;100790.59;6044619;23;20017;-85
2021/10/25 04:56:31;;;;;;;6.25;4.10;;;6.60;99.90;;;7.49;98.54;100796.84;6069956;23;20054;-85
2021/10/25 04:58:57;;;;;;;7.20;4.13;;;6.60;99.90;;;7.57;98.47;100788.47;6070373;23;20425;-85
2021/10/25 05:01:23;;;;;;;6.35;4.38;;;6.70;99.90;;;7.58;98.00;100787.31;6070317;23;20010;-82
2021/10/25 05:03:49;;;;;;;8.73;3.95;;;6.70;99.90;;;7.62;97.88;100796.63;6068864;23;20142;-84
2021/10/25 05:06:19;;;;;;;7.18;4.32;;;6.70;99.90;;;7.62;97.49;100795.78;6045552;23;20437;-84
2021/10/25 05:08:48;;;;;;;7.68;4.00;;;6.70;99.90;;;7.61;97.56;100791.41;6044986;23;20011;-83
2021/10/25 05:11:15;;;;;;;10.20;5.07;;;6.70;99.90;;;7.64;97.84;100788.75;6070729;23;20011;-84
2021/10/25 05:13:42;;;;;;;10.02;4.30;;;6.70;99.90;;;7.71;97.74;100793.78;6044076;23;20015;-84
2021/10/25 05:16:08;;;;;;;10.27;4.55;;;6.80;99.90;;;7.78;97.36;100786.53;6069193;23;20069;-82
2021/10/25 05:18:34;;;;;;;8.40;3.97;;;6.80;99.90;;;7.82;97.12;100784.72;6070676;23;20009;-83
2021/10/25 05:21:00;;;;;;;7.15;3.70;;;6.90;99.90;;;7.83;96.71;100780.00;6069290;23;20002;-85
2021/10/25 05:23:27;;;;;;;8.63;4.13;;;6.90;99.90;;;7.92;96.04;100777.97;6069886;23;20015;-83
2021/10/25 05:25:54;;;;;;;6.45;3.65;;;6.90;99.90;;;7.88;96.05;100774.22;6068083;23;20014;-84
2021/10/25 05:28:20;;;;;;;7.72;4.15;;;6.90;99.90;;;7.82;96.10;100779.16;6070178;23;20006;-82
2021/10/25 05:30:46;;;;;;;10.23;4.20;;;6.80;99.90;;;7.75;96.18;100780.84;6043970;23;20011;-85
2021/10/25 05:33:11;;;;;;;9.07;4.30;;;6.80;99.90;;;7.68;96.47;100786.94;6042976;23;20037;-84
2021/10/25 05:35:38;;;;;;;8.57;4.30;;;6.70;99.90;;;7.62;96.32;100779.13;6043625;23;20010;-85
2021/10/25 05:38:05;;;;;;;10.20;4.50;;;6.70;99.90;;;7.56;96.69;100769.34;6071033;23;20062;-86
2021/10/25 05:40:32;;;;;;;8.07;4.47;;;6.60;99.90;;;7.47;96.70;100771.34;6045174;23;20513;-86
2021/10/25 05:43:01;;;;;;;7.10;4.50;;;6.40;99.90;;;7.39;97.29;100771.06;6070136;23;20015;-86
2021/10/25 05:45:27;;;;;;;9.32;4.22;;;6.40;99.90;;;7.39;97.94;100782.16;6069478;23;20015;-83
2021/10/25 05:47:53;;;;;;;10.60;4.53;;;6.40;99.90;;;7.37;97.97;100778.09;6043989;23;20031;-84
2021/10/25 05:50:19;;;;;;;8.50;4.30;;;6.40;99.90;;;7.32;98.66;100790.19;6071588;23;20058;-85
2021/10/25 05:52:44;;;;;;;7.70;4.22;;;6.40;99.90;;;7.53;98.71;100790.28;6070314;23;20007;-84
2021/10/25 05:55:10;;;;;;;11.88;4.53;;;6.60;99.90;;;7.73;97.34;100781.19;6043602;23;20015;-83
2021/10/25 05:57:36;;;;;;;8.52;3.60;;;6.90;99.90;;;7.85;96.55;100788.81;6044494;23;20066;-84
2021/10/25 06:00:05;;;;;;;6.38;4.10;;;6.90;99.90;;;7.89;95.76;100784.19;6044289;23;20011;-83
2021/10/25 06:02:35;;;;;;;8.48;3.90;;;7.00;99.90;;;7.92;95.52;100786.31;6069083;23;20007;-85
2021/10/25 06:05:03;;;;;;;9.10;3.80;;;7.10;99.90;;;8.01;95.03;100787.06;6069653;23;20014;-83
2021/10/25 06:07:29;;;;;;;4.97;3.55;;;7.10;99.90;;;8.07;94.58;100782.09;6044788;23;20468;-85
2021/10/25 06:09:55;;;;;;;6.03;3.38;;;7.10;99.90;;;8.04;93.96;100774.44;6069789;23;20003;-84
2021/10/25 06:12:21;;;;;;;5.88;3.40;;;7.10;99.90;;;7.99;94.15;100778.25;6068814;23;20009;-81
2021/10/25 06:14:48;;;;;;;9.93;4.07;;;7.00;99.90;;;7.87;94.21;100778.13;6069173;23;20011;-83
2021/10/25 06:20:13;;;;;;;7.47;4.22;;;6.70;99.90;;;7.59;95.36;100783.38;6036645;23;20414;-81
2021/10/25 06:22:39;;;;;;;5.78;3.72;;;6.60;99.90;;;7.54;95.65;100782.75;6068544;23;20010;-83
2021/10/25 06:25:11;;;;;;;8.70;4.55;;;6.50;99.90;;;7.46;96.57;100780.81;6069025;23;20011;-83
2021/10/25 06:27:38;;;;;;;12.57;4.50;;;6.50;99.90;;;7.38;97.11;100779.75;6043450;23;20071;-81
2021/10/25 06:30:06;;;;;;;10.48;4.13;;;6.40;99.90;;;7.30;97.73;100770.28;6043556;23;20010;-83
2021/10/25 06:32:32;;;;;;;6.35;4.05;;;6.30;99.90;;;7.32;97.35;100779.09;6069709;23;20003;-81
2021/10/25 06:35:00;;;;;;;7.03;3.88;;;6.30;99.90;;;7.30;97.44;100763.91;6069405;23;20022;-80
2021/10/25 06:37:33;;;;;;;10.93;5.32;;;6.20;99.90;;;7.23;97.06;100767.19;6068846;23;20090;-83
2021/10/25 06:40:03;;;;;;;13.73;7.65;;;6.10;99.90;;;7.09;97.28;100768.56;6067689;23;20334;-82
2021/10/25 06:42:28;;;;;;;9.45;5.70;;;6.00;99.90;;;6.88;97.72;100774.84;6067088;23;20434;-83
2021/10/25 06:45:00;;;;;;;8.82;4.93;;;5.90;99.90;;;6.71;98.41;100774.06;6067985;23;20018;-83
2021/10/25 06:47:26;;;;;;;8.05;4.57;;;5.70;99.90;;;6.58;99.07;100784.19;6042912;23;20018;-84
2021/10/25 06:49:52;;;;;;;9.95;4.28;;;5.60;99.90;;;6.61;100.00;100788.28;6043221;23;20010;-84
2021/10/25 06:52:19;;;;;;;8.57;4.50;;;5.60;99.90;;;6.70;100.00;100787.13;6044413;23;20007;-84
2021/10/25 06:54:45;;;;;;;7.57;4.75;;;5.70;99.90;;;6.83;100.00;100788.06;6070150;23;20006;-84
2021/10/25 06:57:11;;;;;;;9.10;4.45;;;5.80;99.90;;;7.00;100.00;100798.34;6047565;23;20018;-83
2021/10/25 06:59:37;;;;;;;9.65;4.65;;;6.00;99.90;;;7.21;100.00;100794.50;6045440;23;20018;-84
2021/10/25 07:02:03;;;;;;;10.13;4.60;;;6.20;99.90;;;7.34;98.97;100792.66;6071085;23;20007;-84
2021/10/25 07:04:29;;;;;;;8.25;4.20;;;6.30;99.90;;;7.37;98.27;100798.38;6071713;23;20007;-85
2021/10/25 07:06:56;;;;;;;10.95;3.95;;;6.30;99.90;;;7.41;98.19;100801.31;6069786;23;20003;-84
2021/10/25 07:09:23;;;;;;;6.90;4.45;;;6.30;99.90;;;7.41;97.98;100804.06;6043662;23;20318;-84
2021/10/25 07:11:49;;;;;;;10.35;4.68;;;6.30;99.90;;;7.39;97.99;100803.56;6044705;23;20073;-85
2021/10/25 07:14:22;;;;;;;6.35;3.67;;;6.30;99.90;;;7.39;98.21;100806.34;6045059;23;20505;-83
2021/10/25 07:16:51;;;;;;;7.68;4.45;;;6.30;99.90;;;7.40;98.04;100805.22;6046039;23;20006;-81
2021/10/25 07:19:27;;;;;;;7.07;4.55;;;6.40;99.90;;;7.49;97.72;100808.78;6070749;23;20015;-82
2021/10/25 08:06:08;;;;;;;4.57;3.60;;;8.40;99.90;;;10.14;83.34;100826.13;6079807;23;20099;-82
2021/10/25 08:08:54;;;;;;;6.10;3.50;;;8.90;99.90;;;10.55;80.15;100823.00;6080190;23;20086;-81
2021/10/25 08:11:31;;;;;;;7.95;2.88;;;9.40;99.90;;;11.09;76.70;100824.19;6101985;23;20010;-83
2021/10/25 08:14:02;;;;;;;7.22;3.22;;;10.00;99.90;;;11.43;75.20;100824.69;6114365;23;20006;-81
2021/10/25 08:19:28;;;;;;;6.93;3.00;;;10.70;99.90;;;11.87;73.15;100828.22;6092349;23;20167;-80
2021/10/25 08:22:11;;;;;;;8.77;2.90;;;10.90;99.90;;;11.98;72.16;100832.91;6101948;23;20006;-80
2021/10/25 08:24:48;;;;;;;7.53;3.00;;;11.10;99.90;;;12.19;70.82;100823.41;6077268;23;20010;-79
2021/10/25 08:27:19;;;;;;;8.52;3.28;;;11.20;99.90;;;12.20;71.67;100825.81;6077423;23;20093;-80
2021/10/25 08:29:48;;;;;;;5.50;2.63;;;11.30;99.90;;;12.12;71.52;100821.25;6075029;23;20428;-81
2021/10/25 08:35:34;;;;;;;8.00;3.05;;;11.50;99.90;;;12.74;69.40;100814.63;6059440;23;20018;-81
2021/10/25 08:40:45;;;;;;;5.90;2.58;;;11.90;99.90;;;13.06;67.64;100818.06;6101182;23;20073;-80
2021/10/25 08:43:13;;;;;;;5.85;3.42;;;12.00;99.90;;;13.00;67.85;100817.53;6097641;23;20507;-80
2021/10/25 08:45:39;;;;;;;5.03;2.78;;;12.10;99.90;;;12.93;66.40;100820.22;6096524;23;20010;-79
2021/10/25 08:48:08;;;;;;;5.05;2.58;;;12.10;99.90;;;13.11;67.24;100826.19;6100133;23;20006;-78
2021/10/25 08:50:35;;;;;;;6.03;2.25;;;12.20;99.90;;;13.23;66.14;100825.25;6051929;23;20325;-81
2021/10/25 08:53:09;;;;;;;3.65;2.75;;;12.40;99.90;;;13.24;65.65;100827.66;6099899;23;20017;-80
2021/10/25 08:55:35;;;;;;;4.07;2.30;;;12.40;99.90;;;13.53;66.45;100820.56;6098914;23;20097;-77
2021/10/25 08:58:04;;;;;;;5.20;3.00;;;12.50;99.90;;;13.29;65.22;100820.94;6099711;23;20013;-77
2021/10/25 09:00:45;;;;;;;4.18;2.47;;;12.50;99.90;;;13.57;64.74;100824.25;6100438;23;20037;-80
2021/10/25 09:03:12;;;;;;;5.90;2.47;;;12.60;99.90;;;13.91;64.53;100828.03;6100209;23;20006;-79
2021/10/25 09:05:39;;;;;;;5.70;2.72;;;12.90;99.90;;;13.98;63.88;100831.78;6074695;23;20043;-76
2021/10/25 09:08:11;;;;;;;6.88;2.75;;;13.00;99.90;;;13.96;64.41;100827.72;6102385;23;20019;-76
2021/10/25 09:10:45;;;;;;;7.03;2.90;;;13.00;99.90;;;14.31;64.11;100831.09;6101104;23;20026;-77
2021/10/25 09:13:28;;;;;;;4.35;2.85;;;13.20;99.90;;;14.26;62.00;100828.59;6099698;23;20003;-79
2021/10/25 09:16:00;;;;;;;3.90;2.20;;;13.30;99.90;;;14.68;62.36;100837.66;6074950;23;20085;-76
2021/10/25 09:18:33;;;;;;;7.95;2.53;;;13.50;99.90;;;14.79;61.98;100835.00;6101814;23;20034;-79
2021/10/25 09:21:13;;;;;;;4.05;2.35;;;13.70;99.90;;;15.39;61.58;100830.06;6052654;23;20011;-79
2021/10/25 09:23:50;;;;;;;6.57;2.25;;;14.00;99.90;;;16.21;58.88;100831.63;6102443;23;20157;-81
2021/10/25 09:26:28;;;;;;;2.83;1.80;;;14.50;99.90;;;15.87;58.50;100833.75;6104245;23;20447;-79
2021/10/25 09:29:01;;;;;;;5.68;2.30;;;14.60;99.90;;;15.36;58.52;100821.56;6077027;23;20006;-77
2021/10/25 09:31:34;;;;;;;4.57;2.03;;;14.50;99.90;;;15.52;59.76;100823.00;6051026;23;20069;-79
2021/10/25 09:34:09;;;;;;;6.38;2.30;;;14.40;99.90;;;15.78;58.83;100819.19;6053384;23;20012;-78
2021/10/25 09:36:42;;;;;;;5.97;2.50;;;14.60;99.90;;;15.63;58.51;100837.19;6098789;23;20006;-78
2021/10/25 09:39:22;;;;;;;10.27;2.63;;;14.70;99.90;;;15.39;59.72;100826.44;6074543;23;20006;-75
2021/10/25 09:45:21;;;;;;;7.65;2.30;;;14.50;99.90;;;15.78;59.07;100825.66;6019837;23;20066;-79
2021/10/25 09:50:42;;;;;;;4.80;1.90;;;14.70;99.90;;;16.14;58.04;100811.84;6098598;23;20341;-78
2021/10/25 09:53:09;;;;;;;5.05;2.10;;;14.90;99.90;;;16.18;57.37;100823.94;6099189;23;20388;-76
2021/10/25 09:55:44;;;;;;;4.68;2.55;;;15.00;99.90;;;15.98;57.81;100812.13;6097640;23;20006;-82
2021/10/25 09:58:21;;;;;;;4.25;2.33;;;14.90;99.90;;;16.27;56.70;100805.50;6072794;23;20018;-82
2021/10/25 10:00:47;;;;;;;7.88;2.63;;;15.00;99.90;;;16.05;57.99;100812.19;6098395;23;20010;-82
2021/10/25 10:03:15;;;;;;;5.38;2.60;;;15.00;99.90;;;16.08;56.68;100807.78;6098502;23;20294;-83
2021/10/25 10:05:43;;;;;;;3.63;2.13;;;15.10;99.90;;;16.48;57.12;100813.25;6098733;23;20010;-81
2021/10/25 10:08:13;;;;;;;3.70;2.13;;;15.20;99.90;;;16.47;56.05;100808.03;6050025;23;20069;-84
2021/10/25 10:10:40;;;;;;;4.85;2.15;;;15.30;99.90;;;16.65;56.81;100806.94;6073255;23;20017;-82
2021/10/25 10:13:12;;;;;;;7.72;2.53;;;15.50;99.90;;;16.89;56.01;100807.47;6097252;23;20010;-81
2021/10/25 10:15:41;;;;;;;5.75;2.22;;;15.60;99.90;;;17.18;55.76;100804.31;6080386;23;20021;-81
2021/10/25 10:18:18;;;;;;;4.15;2.28;;;15.80;99.90;;;17.55;55.03;100800.34;6073831;23;20326;-80
2021/10/25 10:20:53;;;;;;;2.92;2.03;;;16.00;99.90;;;17.91;54.03;100807.66;6074520;23;20213;-83
2021/10/25 10:23:23;;;;;;;4.72;2.03;;;16.30;99.90;;;17.80;52.92;100806.84;6051159;23;20019;-82
2021/10/25 10:25:59;;;;;;;4.72;1.90;;;16.20;97.90;;;17.91;53.02;100804.84;6050780;23;20018;-80
2021/10/25 10:28:49;;;;;;;6.50;2.35;;;16.30;98.20;;;17.65;54.49;100800.41;6097959;23;20436;-79
2021/10/25 10:31:25;;;;;;;4.15;2.30;;;16.40;98.20;;;17.34;55.20;100799.09;6075749;23;20073;-81
2021/10/25 10:33:59;;;;;;;4.63;2.15;;;16.30;98.30;;;17.87;52.79;100799.19;6077549;23;20007;-79
2021/10/25 10:36:32;;;;;;;3.83;1.92;;;16.60;95.90;;;18.63;51.84;100797.84;6101560;23;20006;-82
2021/10/25 10:39:11;;;;;;;4.40;2.28;;;17.10;95.30;;;17.74;53.12;100797.16;6075265;23;20065;-82
2021/10/25 10:41:45;;;;;;;4.88;2.25;;;16.80;93.50;;;17.14;55.09;100789.41;6100065;23;20014;-80
2021/10/25 10:44:16;;;;;;;5.55;2.22;;;16.20;95.30;;;17.01;55.47;100779.69;6054557;23;20094;-81
2021/10/25 10:46:58;;;;;;;3.13;1.83;;;15.90;97.40;;;16.34;56.97;100782.97;6104528;23;20022;-81
2021/10/25 10:49:42;;;;;;;4.40;2.03;;;15.60;98.60;;;16.52;57.74;100788.72;6102039;23;20046;-81
2021/10/25 10:52:30;;;;;;;4.47;1.95;;;15.40;99.90;;;17.04;57.26;100781.72;6100524;23;20062;-80
2021/10/25 10:55:16;;;;;;;5.15;3.13;;;15.70;99.90;;;17.26;55.36;100786.19;6100698;23;20006;-81
2021/10/25 11:00:20;;;;;;;4.85;2.28;;;15.80;98.40;;;16.25;57.50;100785.34;6099818;23;20050;-81
2021/10/25 11:02:58;;;;;;;5.00;2.15;;;15.50;99.80;;;16.64;57.61;100784.75;6102213;23;20081;-81
2021/10/25 11:05:36;;;;;;;5.38;2.22;;;15.50;99.90;;;16.45;59.20;100790.69;6071722;23;20306;-83
2021/10/25 11:08:13;;;;;;;4.88;2.30;;;15.40;99.90;;;16.75;57.57;100791.28;6097842;23;20003;-82
2021/10/25 11:10:46;;;;;;;5.88;1.70;;;15.50;99.90;;;17.06;56.82;100787.75;6097453;23;20010;-82
2021/10/25 11:13:21;;;;;;;4.38;2.00;;;15.60;99.90;;;17.00;56.57;100780.88;6098280;23;20002;-81
2021/10/25 11:16:32;;;;;;;5.57;1.92;;;15.60;99.90;;;16.72;57.64;100786.44;6071193;23;20017;-80
2021/10/25 11:19:04;;;;;;;3.95;2.00;;;15.50;99.90;;;16.85;57.63;100788.50;6075889;23;20018;-81
2021/10/25 11:21:50;;;;;;;4.28;2.22;;;15.60;99.90;;;17.02;57.59;100786.13;6096834;23;20010;-81
2021/10/25 11:24:20;;;;;;;5.53;2.10;;;15.70;99.90;;;17.08;57.51;100782.50;6070875;23;20014;-83
2021/10/25 11:26:59;;;;;;;5.53;2.00;;;15.80;99.90;;;17.50;58.44;100778.16;6046950;23;20014;-80
2021/10/25 11:29:33;;;;;;;3.97;1.98;;;15.90;99.90;;;17.09;58.04;100772.03;6067082;23;20014;-81
2021/10/25 11:32:08;;;;;;;4.63;1.48;;;15.80;99.90;;;17.02;59.50;100780.47;6071128;23;20007;-82
2021/10/25 11:34:42;;;;;;;3.85;1.95;;;15.70;99.90;;;16.72;59.65;100777.97;6047596;23;20066;-79
2021/10/25 11:37:23;;;;;;;4.18;2.03;;;15.60;99.90;;;16.75;61.31;100771.53;6097027;23;20351;-83
2021/10/25 11:40:04;;;;;;;5.85;1.55;;;15.50;99.90;;;16.76;60.98;100773.94;6048022;23;20083;-82
2021/10/25 11:42:42;;;;;;;3.58;1.42;;;15.50;99.90;;;16.95;60.88;100766.38;6096271;23;20455;-81
2021/10/25 11:45:23;;;;;;;4.43;1.75;;;15.50;99.90;;;17.13;60.47;100759.56;6071078;23;20014;-81
2021/10/25 11:47:53;;;;;;;3.20;1.55;;;15.60;99.90;;;17.54;60.17;100751.53;6047018;23;20018;-82
2021/10/25 11:50:26;;;;;;;3.85;2.00;;;15.90;99.90;;;17.65;59.01;100751.56;6071123;23;20396;-81
2021/10/25 11:52:58;;;;;;;4.13;1.70;;;16.10;99.90;;;17.90;59.01;100753.16;6096467;23;20002;-83
2021/10/25 11:55:39;;;;;;;3.78;1.75;;;16.30;99.90;;;17.83;58.94;100744.69;6094845;23;20460;-82
2021/10/25 11:58:14;;;;;;;4.53;1.80;;;16.30;99.90;;;17.83;59.18;100747.53;6097735;23;20085;-83
2021/10/25 12:00:47;;;;;;;4.35;1.50;;;16.30;99.90;;;17.85;58.80;100741.47;6076291;23;20010;-84
2021/10/25 12:03:22;;;;;;;5.20;1.73;;;16.30;99.90;;;17.87;58.93;100747.53;6055815;23;20022;-83
2021/10/25 12:05:48;;;;;;;3.30;1.37;;;16.40;99.90;;;17.80;59.03;100739.03;6098457;23;20010;-86
2021/10/25 12:08:17;;;;;;;4.10;1.67;;;16.30;99.90;;;17.83;59.61;100741.06;6075606;23;20017;-83